Time;durP1;ratioP1;P1;durP2;ratioP2;P2;SDS_P1;SDS_P2;PMS_P1;PMS_P2;Temp;Humidity;BMP_temperature;BMP_pressure;BME280_temperature;BME280_humidity;BME280_pressure;Samples;Min_cycle;Max_cycle;Signal;HPM_P1;HPM_P2
2022/10/05 00:02:20;;;;;;;20.83;11.53;;;10.10;99.90;;;;;;5061578;28;20102;-76
2022/10/05 00:04:52;;;;;;;23.40;12.10;;;10.00;99.90;;;;;;5078978;28;20029;-76
2022/10/05 00:07:20;;;;;;;21.93;12.43;;;10.10;99.90;;;;;;5077766;28;20063;-76
2022/10/05 00:09:57;;;;;;;21.87;11.07;;;10.00;99.90;;;;;;5093552;28;20759;-76
2022/10/05 00:12:24;;;;;;;24.03;12.63;;;10.00;99.90;;;;;;5062236;28;20024;-75
2022/10/05 00:14:56;;;;;;;22.93;12.33;;;10.00;99.90;;;;;;5094878;28;20039;-75
2022/10/05 00:17:25;;;;;;;19.33;11.38;;;10.00;99.90;;;;;;5096600;28;20043;-76
2022/10/05 00:19:52;;;;;;;25.33;11.63;;;10.00;99.90;;;;;;5062447;28;20036;-76
2022/10/05 00:22:32;;;;;;;24.57;12.80;;;9.90;99.90;;;;;;5097027;28;20046;-77
2022/10/05 00:25:00;;;;;;;20.43;11.73;;;9.90;99.90;;;;;;5093420;28;20037;-75
2022/10/05 00:27:32;;;;;;;18.93;11.70;;;9.90;99.90;;;;;;5060231;28;20440;-75
2022/10/05 00:30:01;;;;;;;22.40;12.67;;;10.00;99.90;;;;;;5062273;28;20035;-76
2022/10/05 00:32:27;;;;;;;23.33;12.17;;;10.00;99.90;;;;;;5094174;28;20020;-76
2022/10/05 00:34:52;;;;;;;23.83;11.43;;;10.00;99.90;;;;;;5094788;28;20051;-76
2022/10/05 00:37:18;;;;;;;17.77;11.03;;;10.00;99.90;;;;;;5078318;28;20063;-76
2022/10/05 00:39:44;;;;;;;22.10;12.00;;;10.00;99.90;;;;;;5079023;28;20521;-77
2022/10/05 00:42:51;;;;;;;20.80;12.10;;;10.00;99.90;;;;;;5060377;28;20432;-75
2022/10/05 00:45:36;;;;;;;20.37;10.63;;;10.00;99.90;;;;;;4981521;28;20124;-76
2022/10/05 00:48:14;;;;;;;21.27;10.77;;;10.00;99.90;;;;;;5056690;28;20044;-76
2022/10/05 00:50:48;;;;;;;18.70;9.53;;;10.10;99.90;;;;;;5077932;28;20113;-76
2022/10/05 00:53:30;;;;;;;19.47;10.70;;;10.20;99.90;;;;;;5077840;28;20031;-77
2022/10/05 00:56:18;;;;;;;19.33;10.40;;;10.10;99.90;;;;;;5078768;28;20392;-77
2022/10/05 00:58:54;;;;;;;21.60;10.23;;;10.10;99.90;;;;;;5053875;28;21727;-77
2022/10/05 01:01:35;;;;;;;18.27;11.70;;;10.10;99.90;;;;;;5077771;28;20028;-77
2022/10/05 01:04:13;;;;;;;18.60;10.33;;;10.00;99.90;;;;;;5078106;28;20040;-75
2022/10/05 01:06:57;;;;;;;20.10;11.10;;;10.00;99.90;;;;;;5061614;28;20416;-76
2022/10/05 01:09:42;;;;;;;20.43;10.20;;;10.00;99.90;;;;;;5078277;28;20111;-77
2022/10/05 01:12:27;;;;;;;17.63;10.80;;;10.00;99.90;;;;;;5061783;28;20111;-76
2022/10/05 01:15:22;;;;;;;15.00;10.17;;;10.00;99.90;;;;;;5075884;28;20056;-75
2022/10/05 01:18:25;;;;;;;23.77;10.17;;;10.00;99.90;;;;;;5081711;28;20048;-77
2022/10/05 01:20:54;;;;;;;18.10;10.35;;;10.00;99.90;;;;;;5076030;28;20031;-77
2022/10/05 01:23:25;;;;;;;18.27;10.50;;;10.00;99.90;;;;;;5079124;28;20109;-75
2022/10/05 01:26:30;;;;;;;17.10;10.47;;;10.00;99.90;;;;;;5068878;28;20036;-77
2022/10/05 01:29:26;;;;;;;20.43;10.53;;;9.90;99.90;;;;;;5078591;28;20020;-75
2022/10/05 01:32:22;;;;;;;17.53;9.33;;;9.90;99.90;;;;;;5084617;28;20036;-77
2022/10/05 01:35:06;;;;;;;17.47;10.20;;;9.90;99.90;;;;;;5059512;28;20032;-76
2022/10/05 01:37:44;;;;;;;24.10;9.77;;;9.90;99.90;;;;;;5063713;28;20036;-75
2022/10/05 01:40:40;;;;;;;19.13;9.87;;;10.00;99.90;;;;;;5059375;28;20033;-77
2022/10/05 01:43:14;;;;;;;16.80;9.47;;;9.90;99.90;;;;;;5059992;28;20397;-77
2022/10/05 01:45:49;;;;;;;18.40;9.67;;;9.90;99.90;;;;;;5075920;28;20071;-76
2022/10/05 01:48:45;;;;;;;15.93;9.53;;;9.80;99.90;;;;;;5078536;28;20024;-77
2022/10/05 01:51:21;;;;;;;20.03;10.77;;;9.80;99.90;;;;;;5075346;28;20471;-78
2022/10/05 01:53:59;;;;;;;19.20;10.10;;;9.80;99.90;;;;;;5065564;28;20028;-77
2022/10/05 01:56:45;;;;;;;13.47;9.73;;;9.80;99.90;;;;;;5078152;28;20032;-77
2022/10/05 01:59:41;;;;;;;20.27;10.13;;;9.80;99.90;;;;;;5077905;28;20461;-77
2022/10/05 02:02:13;;;;;;;13.57;9.90;;;9.80;99.90;;;;;;5076141;28;20107;-77
2022/10/05 02:04:45;;;;;;;17.98;10.07;;;9.80;99.90;;;;;;5079536;28;20043;-76
2022/10/05 02:07:23;;;;;;;18.45;11.10;;;9.80;99.90;;;;;;5057829;28;20024;-78
2022/10/05 02:10:04;;;;;;;19.73;11.00;;;9.80;99.90;;;;;;5080375;28;20036;-77
2022/10/05 02:12:35;;;;;;;15.50;10.30;;;9.80;99.90;;;;;;5057906;28;20039;-77
2022/10/05 02:15:12;;;;;;;16.58;10.55;;;9.80;99.90;;;;;;5080317;28;21632;-78
2022/10/05 02:17:45;;;;;;;16.27;10.13;;;9.90;99.90;;;;;;5092806;28;20861;-76
2022/10/05 02:20:17;;;;;;;24.53;11.27;;;9.90;99.90;;;;;;5063758;28;20039;-77
2022/10/05 02:22:48;;;;;;;17.70;10.67;;;9.90;99.90;;;;;;5095808;28;20049;-77
2022/10/05 02:25:18;;;;;;;18.53;10.70;;;9.90;99.90;;;;;;5078246;28;20039;-77
2022/10/05 02:27:55;;;;;;;17.10;10.03;;;9.90;99.90;;;;;;5079523;28;20266;-77
2022/10/05 02:30:21;;;;;;;24.23;10.73;;;9.80;99.90;;;;;;5076158;28;20074;-76
2022/10/05 02:33:01;;;;;;;20.23;10.43;;;9.80;99.90;;;;;;5061236;28;20070;-78
2022/10/05 02:35:27;;;;;;;18.83;10.50;;;9.80;99.90;;;;;;5093535;28;20517;-77
2022/10/05 02:38:12;;;;;;;18.23;10.67;;;9.80;99.90;;;;;;5092736;28;20111;-76
2022/10/05 02:41:07;;;;;;;16.67;10.97;;;9.80;99.90;;;;;;5069970;28;20517;-77
2022/10/05 02:43:47;;;;;;;18.70;11.53;;;9.70;99.90;;;;;;5059605;28;20029;-78
2022/10/05 02:46:36;;;;;;;17.33;10.73;;;9.80;99.90;;;;;;5078012;28;20464;-77
2022/10/05 02:49:24;;;;;;;20.90;11.30;;;9.80;99.90;;;;;;5076996;28;20052;-77
2022/10/05 02:51:58;;;;;;;17.90;10.63;;;9.80;99.90;;;;;;5074633;28;20097;-77
2022/10/05 02:54:53;;;;;;;18.17;11.47;;;9.80;99.90;;;;;;5069435;28;20054;-77
2022/10/05 02:57:30;;;;;;;19.60;11.90;;;9.80;99.90;;;;;;5047091;28;20082;-77
2022/10/05 03:00:26;;;;;;;17.93;12.23;;;9.70;99.90;;;;;;5078456;28;20066;-77
2022/10/05 03:03:08;;;;;;;21.17;13.03;;;9.70;99.90;;;;;;5076334;28;20037;-78
2022/10/05 03:06:02;;;;;;;22.23;13.33;;;9.60;99.90;;;;;;5061863;28;20039;-77
2022/10/05 03:08:40;;;;;;;25.43;14.70;;;9.60;99.90;;;;;;5080548;28;20740;-77
2022/10/05 03:11:17;;;;;;;21.67;12.27;;;9.60;99.90;;;;;;5061892;28;20021;-76
2022/10/05 03:14:00;;;;;;;21.00;13.37;;;9.60;99.90;;;;;;5065602;28;20048;-77
2022/10/05 03:16:31;;;;;;;;;;;9.60;99.90;;;;;;5067442;28;20037;-78
2022/10/05 03:19:17;;;;;;;18.43;12.60;;;9.60;99.90;;;;;;5079500;28;20299;-76
2022/10/05 03:21:45;;;;;;;22.47;13.50;;;9.70;99.90;;;;;;5079140;28;20074;-78
2022/10/05 03:24:40;;;;;;;17.63;11.87;;;9.80;99.90;;;;;;5079881;28;20035;-77
2022/10/05 03:27:32;;;;;;;21.17;12.23;;;9.90;99.90;;;;;;5097864;28;20171;-78
2022/10/05 03:30:24;;;;;;;21.03;12.77;;;10.00;99.90;;;;;;5080934;28;20057;-76
2022/10/05 03:32:52;;;;;;;17.00;12.45;;;10.10;99.90;;;;;;5068711;28;20062;-78
2022/10/05 03:35:34;;;;;;;19.67;11.57;;;10.20;99.90;;;;;;5065271;28;20054;-77
2022/10/05 03:38:31;;;;;;;21.03;13.57;;;10.20;99.90;;;;;;5098420;28;20135;-76
2022/10/05 03:41:09;;;;;;;15.87;10.83;;;10.20;99.90;;;;;;5056279;28;20083;-76
2022/10/05 03:44:06;;;;;;;19.97;12.20;;;10.20;99.90;;;;;;5080521;28;20032;-77
2022/10/05 03:46:38;;;;;;;18.37;12.13;;;10.10;99.90;;;;;;5083215;28;20051;-77
2022/10/05 03:49:17;;;;;;;20.67;12.77;;;10.20;99.90;;;;;;5098876;28;20031;-77
2022/10/05 03:51:47;;;;;;;17.37;11.90;;;10.20;99.90;;;;;;5066156;28;20032;-76
2022/10/05 03:54:21;;;;;;;21.23;12.77;;;10.20;99.90;;;;;;5080280;28;20028;-77
2022/10/05 03:57:06;;;;;;;20.20;13.37;;;10.20;99.90;;;;;;5074016;28;20110;-77
2022/10/05 03:59:40;;;;;;;19.93;12.57;;;10.20;99.90;;;;;;5064078;28;20613;-76
2022/10/05 04:02:25;;;;;;;21.23;14.20;;;10.20;99.90;;;;;;5061405;28;20046;-78
2022/10/05 04:05:11;;;;;;;25.07;14.30;;;10.20;99.90;;;;;;5060528;28;20466;-76
2022/10/05 04:07:42;;;;;;;20.30;12.83;;;10.20;99.90;;;;;;5063720;28;20075;-76
2022/10/05 04:10:23;;;;;;;20.30;13.10;;;10.10;99.90;;;;;;5062947;28;20065;-75
2022/10/05 04:13:01;;;;;;;21.77;12.23;;;10.10;99.90;;;;;;5095393;28;20301;-76
2022/10/05 04:15:35;;;;;;;20.07;12.70;;;10.00;99.90;;;;;;5079776;28;20026;-75
2022/10/05 04:18:10;;;;;;;19.00;11.57;;;10.10;99.90;;;;;;5097644;28;20024;-77
2022/10/05 04:20:51;;;;;;;23.67;13.43;;;10.20;99.90;;;;;;5083617;28;20051;-76
2022/10/05 04:23:49;;;;;;;17.17;11.53;;;10.30;99.90;;;;;;5061754;28;20120;-77
2022/10/05 04:26:23;;;;;;;18.70;12.10;;;10.40;99.90;;;;;;5062539;28;20042;-75
2022/10/05 04:29:06;;;;;;;19.50;12.07;;;10.50;99.90;;;;;;5072987;28;20034;-76
2022/10/05 04:31:59;;;;;;;19.77;12.05;;;10.50;99.90;;;;;;5092175;28;20028;-77
2022/10/05 04:35:02;;;;;;;17.95;11.50;;;10.50;99.90;;;;;;5078049;28;20044;-76
2022/10/05 04:37:48;;;;;;;18.95;11.35;;;10.60;99.90;;;;;;5060421;28;20028;-76
2022/10/05 04:40:52;;;;;;;16.73;10.77;;;10.70;99.90;;;;;;5061626;28;20038;-77
2022/10/05 04:43:28;;;;;;;14.90;10.50;;;10.80;99.90;;;;;;5080202;28;20421;-76
2022/10/05 04:46:05;;;;;;;15.83;11.13;;;10.90;99.90;;;;;;5094451;28;20021;-77
2022/10/05 04:49:09;;;;;;;18.53;10.47;;;11.00;99.90;;;;;;5097378;28;20452;-77
2022/10/05 04:52:00;;;;;;;16.60;10.50;;;11.10;99.90;;;;;;5079169;28;20036;-77
2022/10/05 04:54:26;;;;;;;19.30;10.27;;;11.20;99.90;;;;;;5097423;28;20028;-75
2022/10/05 04:57:00;;;;;;;21.20;10.93;;;11.20;99.90;;;;;;5079064;28;20100;-77
2022/10/05 04:59:59;;;;;;;17.17;10.20;;;11.30;99.90;;;;;;5062844;28;20028;-77
2022/10/05 05:02:46;;;;;;;14.17;10.17;;;11.30;99.90;;;;;;5061513;28;20167;-75
2022/10/05 05:05:49;;;;;;;16.17;9.77;;;11.30;99.90;;;;;;5077388;28;20028;-76
2022/10/05 05:09:04;;;;;;;15.63;9.37;;;11.30;99.90;;;;;;5070607;28;20322;-75
2022/10/05 05:12:15;;;;;;;16.33;9.57;;;11.40;99.90;;;;;;5079888;28;20032;-76
2022/10/05 05:15:01;;;;;;;15.63;9.60;;;11.30;99.90;;;;;;5061312;28;20036;-76
2022/10/05 05:17:38;;;;;;;15.33;9.83;;;11.40;99.90;;;;;;5066300;28;20033;-78
2022/10/05 05:20:17;;;;;;;15.63;9.67;;;11.30;99.90;;;;;;5077241;28;20074;-77
2022/10/05 05:23:09;;;;;;;18.13;9.50;;;11.20;99.90;;;;;;5076647;28;21598;-77
2022/10/05 05:26:02;;;;;;;13.98;9.88;;;11.20;99.90;;;;;;5094422;28;20028;-76
2022/10/05 05:28:55;;;;;;;17.70;10.18;;;11.10;99.90;;;;;;5058999;28;20051;-76
2022/10/05 05:31:37;;;;;;;14.47;10.57;;;11.10;99.90;;;;;;5066617;28;20545;-77
2022/10/05 05:34:26;;;;;;;12.25;9.52;;;11.00;99.90;;;;;;5059318;28;20034;-75
2022/10/05 05:37:08;;;;;;;14.10;9.50;;;10.90;99.90;;;;;;5078394;28;20036;-77
2022/10/05 05:40:11;;;;;;;19.77;10.73;;;11.00;99.90;;;;;;5067919;28;20036;-77
2022/10/05 05:42:53;;;;;;;13.48;10.07;;;11.00;99.90;;;;;;5076713;28;20032;-76
2022/10/05 05:45:32;;;;;;;18.10;10.55;;;11.00;99.90;;;;;;5079350;28;20638;-75
2022/10/05 05:47:59;;;;;;;16.20;11.30;;;11.10;99.90;;;;;;5078367;28;20028;-76
2022/10/05 05:50:40;;;;;;;20.10;12.07;;;11.20;99.90;;;;;;5060475;28;20081;-77
2022/10/05 05:53:22;;;;;;;16.87;12.47;;;11.20;99.90;;;;;;5061182;28;20590;-76
2022/10/05 05:55:53;;;;;;;18.73;11.10;;;11.30;99.90;;;;;;5077099;28;20030;-77
2022/10/05 05:58:37;;;;;;;17.47;10.60;;;11.40;99.90;;;;;;5060985;28;20512;-76
2022/10/05 06:01:23;;;;;;;19.90;11.50;;;11.40;99.90;;;;;;5064743;28;20039;-76
2022/10/05 06:03:55;;;;;;;17.27;11.37;;;11.50;99.90;;;;;;5061024;28;20032;-75
2022/10/05 06:06:33;;;;;;;16.40;11.18;;;11.60;99.90;;;;;;5091924;28;20052;-76
2022/10/05 06:09:12;;;;;;;21.63;14.13;;;11.70;99.90;;;;;;5059131;28;20043;-76
2022/10/05 06:11:59;;;;;;;12.90;8.97;;;11.80;99.90;;;;;;5093629;28;20042;-77
2022/10/05 06:14:30;;;;;;;14.77;7.90;;;11.90;99.90;;;;;;5075127;28;20111;-75
2022/10/05 06:17:21;;;;;;;14.00;8.17;;;12.00;99.90;;;;;;5076962;28;20043;-78
2022/10/05 06:19:49;;;;;;;10.40;7.43;;;12.00;99.90;;;;;;5095067;28;20420;-78
2022/10/05 06:22:37;;;;;;;12.13;7.87;;;12.10;99.90;;;;;;5067972;28;20119;-75
2022/10/05 06:25:20;;;;;;;12.13;8.10;;;12.20;99.90;;;;;;5066679;28;20028;-76
2022/10/05 06:28:01;;;;;;;9.70;7.13;;;12.30;99.90;;;;;;5068520;28;20020;-76
2022/10/05 06:30:55;;;;;;;9.60;6.50;;;12.40;99.90;;;;;;5078677;28;20056;-78
2022/10/05 06:33:30;;;;;;;11.73;7.03;;;12.50;99.90;;;;;;5075594;28;20109;-76
2022/10/05 06:36:14;;;;;;;10.00;6.87;;;12.60;99.90;;;;;;5078366;28;20032;-76
2022/10/05 06:39:16;;;;;;;9.97;6.13;;;12.70;99.90;;;;;;5063346;28;20085;-78
2022/10/05 06:41:51;;;;;;;8.47;6.17;;;12.80;99.90;;;;;;5061306;28;20463;-76
2022/10/05 06:44:52;;;;;;;9.67;5.83;;;12.90;99.90;;;;;;5076090;28;20037;-77
2022/10/05 06:47:43;;;;;;;8.97;6.67;;;13.00;99.90;;;;;;5058879;28;20422;-76
2022/10/05 06:50:30;;;;;;;10.20;6.63;;;13.20;99.90;;;;;;5078782;28;20056;-78
2022/10/05 06:53:26;;;;;;;9.60;6.17;;;13.30;99.90;;;;;;5057389;28;20028;-76
2022/10/05 06:56:09;;;;;;;9.57;6.80;;;13.30;99.90;;;;;;5077354;28;20059;-77
2022/10/05 06:58:54;;;;;;;11.65;5.78;;;13.50;99.90;;;;;;5057848;28;20028;-78
2022/10/05 07:01:42;;;;;;;9.40;6.27;;;13.60;99.90;;;;;;5058886;28;20020;-76
2022/10/05 07:04:17;;;;;;;8.57;5.43;;;13.60;99.90;;;;;;5076679;28;20089;-77
2022/10/05 07:06:48;;;;;;;7.80;5.00;;;13.70;99.90;;;;;;5074855;28;20460;-75
2022/10/05 07:09:31;;;;;;;9.70;5.63;;;13.90;99.90;;;;;;5076981;28;20038;-77
2022/10/05 07:12:15;;;;;;;7.47;5.57;;;13.90;99.90;;;;;;5063211;28;20043;-76
2022/10/05 07:15:12;;;;;;;9.90;5.13;;;14.10;99.90;;;;;;5074918;28;20031;-78
2022/10/05 07:17:55;;;;;;;6.90;4.43;;;14.10;99.90;;;;;;5075570;28;20024;-76
2022/10/05 07:20:56;;;;;;;6.13;4.53;;;14.20;99.90;;;;;;5072510;28;20029;-77
2022/10/05 07:23:39;;;;;;;9.93;5.00;;;14.30;99.90;;;;;;5027164;28;20032;-76
2022/10/05 07:26:14;;;;;;;6.30;5.15;;;14.30;99.90;;;;;;5076209;28;20095;-78
2022/10/05 07:28:56;;;;;;;6.97;4.85;;;14.40;99.90;;;;;;5059835;28;20127;-76
2022/10/05 07:32:01;;;;;;;10.88;5.75;;;14.50;99.90;;;;;;5076512;28;20025;-76
2022/10/05 07:34:48;;;;;;;8.55;5.45;;;14.50;99.90;;;;;;5096601;28;20526;-77
2022/10/05 07:40:46;;;;;;;9.63;4.80;;;14.70;99.90;;;;;;5012624;28;20134;-77
2022/10/05 07:43:18;;;;;;;10.20;5.57;;;14.70;99.90;;;;;;5056304;28;20144;-77
2022/10/05 07:45:52;;;;;;;11.50;4.93;;;14.80;99.90;;;;;;5091909;28;20028;-78
2022/10/05 07:48:20;;;;;;;10.73;5.60;;;14.80;99.90;;;;;;5076179;28;20117;-78
2022/10/05 07:50:57;;;;;;;8.95;5.82;;;14.90;99.90;;;;;;5058352;28;20040;-76
2022/10/05 07:53:35;;;;;;;10.85;6.07;;;14.90;99.90;;;;;;5075662;28;20028;-75
2022/10/05 07:56:14;;;;;;;8.38;5.43;;;14.90;99.90;;;;;;5077476;28;20025;-76
2022/10/05 07:58:48;;;;;;;10.85;5.50;;;15.00;99.90;;;;;;5079268;28;20040;-77
2022/10/05 08:01:34;;;;;;;8.68;5.70;;;15.00;99.90;;;;;;5080620;28;20036;-76
2022/10/05 08:04:33;;;;;;;11.98;5.90;;;15.10;99.90;;;;;;5081375;28;20063;-76
2022/10/05 08:07:05;;;;;;;12.43;6.57;;;15.10;99.90;;;;;;5063587;28;20107;-77
2022/10/05 08:09:40;;;;;;;;;;;15.20;99.90;;;;;;5079087;28;20047;-77
2022/10/05 08:12:27;;;;;;;9.23;5.82;;;15.20;99.90;;;;;;5093227;28;19912;-76
2022/10/05 08:14:58;;;;;;;12.07;5.70;;;15.20;99.90;;;;;;5080888;28;20055;-76
2022/10/05 08:17:40;;;;;;;8.63;5.75;;;15.30;99.90;;;;;;5079986;28;20039;-76
2022/10/05 08:20:15;;;;;;;11.43;6.03;;;15.40;99.90;;;;;;5059087;28;20032;-78
2022/10/05 08:22:49;;;;;;;10.48;6.13;;;15.50;99.90;;;;;;5065390;28;20048;-77
2022/10/05 08:25:53;;;;;;;9.70;5.80;;;15.60;99.90;;;;;;5078408;28;20363;-78
2022/10/05 08:28:24;;;;;;;14.98;6.38;;;15.80;99.90;;;;;;5076793;28;20024;-77
2022/10/05 08:31:37;;;;;;;11.27;5.82;;;15.90;99.90;;;;;;5092574;28;20094;-78
2022/10/05 08:34:23;;;;;;;10.38;6.13;;;16.20;99.90;;;;;;5010608;28;20025;-76
2022/10/05 08:37:03;;;;;;;11.50;6.03;;;16.40;99.90;;;;;;5055580;28;20024;-76
2022/10/05 08:39:41;;;;;;;19.30;7.18;;;16.60;99.90;;;;;;5063826;28;20047;-78
2022/10/05 08:42:19;;;;;;;12.50;5.78;;;16.80;99.90;;;;;;5079507;28;20024;-76
2022/10/05 08:45:29;;;;;;;11.70;5.82;;;17.00;99.90;;;;;;5058068;28;20244;-78
2022/10/05 08:48:34;;;;;;;15.63;6.18;;;17.20;99.90;;;;;;5062799;28;20056;-76
2022/10/05 08:51:29;;;;;;;11.23;6.28;;;17.30;99.90;;;;;;5057150;28;20044;-78
2022/10/05 08:54:13;;;;;;;8.32;5.45;;;17.40;99.90;;;;;;5031877;28;20067;-77
2022/10/05 08:56:44;;;;;;;11.77;6.28;;;17.40;99.90;;;;;;5079676;28;20056;-77
2022/10/05 08:59:46;;;;;;;9.80;5.63;;;17.50;99.90;;;;;;5078973;28;20028;-78
2022/10/05 09:02:29;;;;;;;12.23;6.10;;;17.50;99.90;;;;;;5079739;28;20089;-77
2022/10/05 09:05:14;;;;;;;14.93;6.57;;;17.60;99.90;;;;;;5064711;28;20032;-77
2022/10/05 09:07:56;;;;;;;16.40;5.60;;;17.80;99.90;;;;;;5077766;28;20031;-77
2022/10/05 09:10:40;;;;;;;8.73;5.85;;;18.00;99.90;;;;;;5059603;28;20751;-77
2022/10/05 09:13:18;;;;;;;9.95;6.05;;;18.20;99.90;;;;;;5078135;28;20040;-77
2022/10/05 09:16:08;;;;;;;11.25;6.43;;;18.30;99.90;;;;;;5078250;28;20817;-77
2022/10/05 09:18:46;;;;;;;7.88;5.28;;;18.40;99.90;;;;;;5077266;28;20035;-77
2022/10/05 09:21:28;;;;;;;9.52;5.22;;;18.60;99.90;;;;;;5076724;28;20044;-78
2022/10/05 09:24:21;;;;;;;9.98;5.85;;;18.80;99.90;;;;;;5077599;28;20025;-76
2022/10/05 09:27:15;;;;;;;8.90;5.22;;;19.00;99.90;;;;;;5067382;28;20152;-77
2022/10/05 09:29:59;;;;;;;10.25;5.72;;;19.20;99.90;;;;;;5092958;28;20040;-77
2022/10/05 09:32:26;;;;;;;10.15;4.78;;;19.50;99.90;;;;;;5063355;28;20028;-76
2022/10/05 09:35:29;;;;;;;8.80;4.50;;;19.40;99.90;;;;;;5077966;28;20464;-78
2022/10/05 09:38:01;;;;;;;;;;;19.50;99.90;;;;;;5092665;28;20036;-77
2022/10/05 09:40:51;;;;;;;8.48;4.78;;;19.70;99.90;;;;;;5077079;28;19924;-78
2022/10/05 09:43:35;;;;;;;10.05;4.70;;;19.70;99.90;;;;;;5062108;28;20032;-78
2022/10/05 09:46:17;;;;;;;11.27;4.85;;;19.70;99.90;;;;;;5064436;28;20048;-76
2022/10/05 09:49:04;;;;;;;7.15;4.72;;;19.60;99.90;;;;;;5077356;28;20420;-78
2022/10/05 09:51:51;;;;;;;8.80;4.28;;;19.40;99.90;;;;;;5058347;28;21613;-77
2022/10/05 09:54:36;;;;;;;9.35;4.57;;;19.30;99.90;;;;;;5067297;28;20028;-77
2022/10/05 09:57:05;;;;;;;14.55;4.57;;;19.30;99.90;;;;;;5061535;28;20114;-77
2022/10/05 10:00:01;;;;;;;15.25;4.47;;;19.30;99.90;;;;;;5077065;28;20059;-78
2022/10/05 10:02:46;;;;;;;6.15;3.42;;;19.60;99.90;;;;;;5076590;28;20125;-77
2022/10/05 10:05:32;;;;;;;5.95;3.20;;;20.00;99.90;;;;;;5077780;28;20147;-76
2022/10/05 10:08:19;;;;;;;3.92;3.30;;;20.10;99.90;;;;;;5073646;28;20029;-76
2022/10/05 10:10:59;;;;;;;5.43;2.80;;;20.50;99.90;;;;;;5073136;28;20054;-79
2022/10/05 10:13:50;;;;;;;7.22;2.72;;;20.80;99.90;;;;;;5075136;28;20258;-76
2022/10/05 10:16:39;;;;;;;9.07;2.78;;;21.10;99.90;;;;;;5074872;28;20039;-77
2022/10/05 10:19:23;;;;;;;14.98;4.05;;;21.30;99.90;;;;;;5066088;28;20388;-77
2022/10/05 10:22:37;;;;;;;7.85;3.20;;;20.90;99.90;;;;;;5073416;28;20032;-77
2022/10/05 10:25:12;;;;;;;8.95;3.20;;;21.00;99.90;;;;;;5071996;28;20024;-78
2022/10/05 10:28:24;;;;;;;5.43;2.40;;;21.10;99.90;;;;;;5059420;28;20036;-76
2022/10/05 10:31:13;;;;;;;3.00;2.20;;;21.30;99.90;;;;;;5058882;28;20029;-78
2022/10/05 10:33:54;;;;;;;5.50;2.55;;;21.30;99.90;;;;;;5066629;28;20504;-77
2022/10/05 10:36:26;;;;;;;7.45;2.58;;;21.50;99.90;;;;;;5073620;28;20040;-77
2022/10/05 10:39:00;;;;;;;8.02;2.72;;;21.40;99.90;;;;;;5053557;28;20149;-78
2022/10/05 10:41:26;;;;;;;6.60;2.30;;;21.30;99.90;;;;;;5055859;28;20056;-76
2022/10/05 10:43:58;;;;;;;3.78;2.20;;;21.20;99.90;;;;;;5074701;28;20444;-78
2022/10/05 10:46:39;;;;;;;4.90;2.72;;;20.90;99.90;;;;;;5056663;28;20035;-78
2022/10/05 10:49:35;;;;;;;8.15;2.55;;;20.70;99.90;;;;;;5061183;28;20388;-76
2022/10/05 10:52:10;;;;;;;7.63;2.50;;;20.30;99.90;;;;;;5073345;28;20444;-75
2022/10/05 10:54:56;;;;;;;6.13;2.50;;;20.10;99.90;;;;;;5058042;28;20032;-75
2022/10/05 10:57:37;;;;;;;3.30;2.33;;;19.80;99.90;;;;;;5063460;28;20049;-75
2022/10/05 11:00:23;;;;;;;6.72;2.90;;;19.90;99.90;;;;;;5065742;28;20047;-75
2022/10/05 11:03:02;;;;;;;3.50;2.03;;;19.90;99.90;;;;;;5058412;28;20043;-78
2022/10/05 11:05:49;;;;;;;3.83;2.28;;;19.70;99.90;;;;;;5075114;28;20115;-77
2022/10/05 11:08:38;;;;;;;2.67;2.00;;;19.60;99.90;;;;;;5076120;28;21612;-77
2022/10/05 11:11:22;;;;;;;4.88;2.30;;;19.60;99.90;;;;;;5057570;28;20028;-77
2022/10/05 11:14:02;;;;;;;5.93;2.10;;;19.60;99.90;;;;;;5054976;28;20020;-78
2022/10/05 11:16:40;;;;;;;4.03;1.95;;;19.50;99.90;;;;;;5073644;28;20078;-77
2022/10/05 11:19:19;;;;;;;3.70;2.05;;;19.50;99.90;;;;;;5057586;28;20592;-76
2022/10/05 11:21:59;;;;;;;2.33;1.58;;;19.50;99.90;;;;;;5073422;28;20506;-78
2022/10/05 11:24:40;;;;;;;4.53;1.40;;;19.50;99.90;;;;;;5071071;28;20111;-77
2022/10/05 11:27:27;;;;;;;6.93;2.10;;;19.70;99.90;;;;;;5072411;28;20437;-76
2022/10/05 11:30:24;;;;;;;4.65;2.85;;;19.70;99.90;;;;;;5058476;28;20064;-77
2022/10/05 11:32:59;;;;;;;4.60;2.03;;;19.70;99.90;;;;;;5076325;28;20037;-76
2022/10/05 11:35:35;;;;;;;3.65;1.60;;;19.80;99.90;;;;;;5077637;28;20032;-77
2022/10/05 11:38:25;;;;;;;3.42;1.75;;;19.90;99.90;;;;;;5068373;28;20127;-77
2022/10/05 11:41:34;;;;;;;7.28;1.88;;;19.90;99.90;;;;;;5077058;28;20033;-76
2022/10/05 11:44:12;;;;;;;1.92;1.40;;;20.00;99.90;;;;;;4990382;28;20034;-78
2022/10/05 11:47:07;;;;;;;4.32;1.92;;;20.00;99.90;;;;;;5068742;28;20046;-76
2022/10/05 11:49:44;;;;;;;2.53;1.25;;;20.10;99.90;;;;;;5093176;28;20123;-78
2022/10/05 11:52:12;;;;;;;2.70;2.05;;;20.30;99.90;;;;;;5076463;28;20028;-77
2022/10/05 11:54:50;;;;;;;3.50;1.20;;;20.30;99.90;;;;;;5059504;28;20062;-77
2022/10/05 11:57:43;;;;;;;3.63;1.35;;;20.40;99.90;;;;;;5068418;28;20063;-76
2022/10/05 12:00:20;;;;;;;2.97;1.23;;;20.40;99.90;;;;;;5061961;28;20484;-76
2022/10/05 12:03:22;;;;;;;5.05;1.00;;;20.50;99.90;;;;;;5076311;28;20039;-77
2022/10/05 12:06:32;;;;;;;2.38;1.33;;;20.60;99.90;;;;;;5078109;28;20484;-77
2022/10/05 12:09:21;;;;;;;4.38;1.00;;;20.60;99.90;;;;;;5062215;28;20040;-76
2022/10/05 12:12:20;;;;;;;3.17;1.20;;;20.70;99.90;;;;;;5055041;28;20056;-76
2022/10/05 12:15:12;;;;;;;4.32;1.08;;;20.70;99.90;;;;;;5053905;28;20101;-76
2022/10/05 12:18:01;;;;;;;2.63;0.82;;;20.80;99.90;;;;;;5077085;28;20036;-76
2022/10/05 12:20:39;;;;;;;1.92;0.80;;;20.80;99.90;;;;;;5068679;28;20028;-75
2022/10/05 12:23:27;;;;;;;4.15;1.40;;;20.80;99.90;;;;;;5077739;28;20052;-75
2022/10/05 12:26:01;;;;;;;2.67;1.20;;;21.00;99.90;;;;;;5060000;28;20034;-75
2022/10/05 12:28:36;;;;;;;2.90;1.25;;;21.00;99.90;;;;;;5063381;28;20017;-75
2022/10/05 12:31:10;;;;;;;1.60;0.70;;;21.10;99.90;;;;;;5058934;28;20048;-76
2022/10/05 12:33:41;;;;;;;2.72;1.10;;;21.00;99.90;;;;;;5092260;28;20059;-76
2022/10/05 12:36:17;;;;;;;4.75;1.15;;;21.00;99.90;;;;;;5062290;28;20088;-77
2022/10/05 12:39:03;;;;;;;6.65;1.02;;;21.10;99.90;;;;;;5074394;28;20032;-76
2022/10/05 12:41:59;;;;;;;4.65;0.90;;;21.10;99.90;;;;;;5078561;28;20024;-77
2022/10/05 12:44:31;;;;;;;3.53;0.95;;;21.20;99.90;;;;;;5075750;28;20032;-77
2022/10/05 12:47:38;;;;;;;2.30;1.20;;;21.30;99.90;;;;;;5077219;28;20519;-76
2022/10/05 12:50:37;;;;;;;3.90;0.85;;;21.40;99.90;;;;;;5092227;28;20155;-77
2022/10/05 12:53:24;;;;;;;3.05;0.88;;;21.60;99.90;;;;;;5060821;28;20032;-75
2022/10/05 12:56:03;;;;;;;1.75;1.00;;;21.70;99.90;;;;;;5062101;28;20131;-77
2022/10/05 12:59:18;;;;;;;2.47;1.55;;;22.40;99.90;;;;;;5092738;28;20759;-80
2022/10/05 13:02:09;;;;;;;1.80;0.98;;;23.40;98.70;;;;;;5066676;28;20089;-76
2022/10/05 13:04:50;;;;;;;1.70;0.98;;;23.80;96.20;;;;;;5077850;28;20059;-77
2022/10/05 13:07:40;;;;;;;1.83;1.00;;;23.90;94.80;;;;;;5075791;28;20031;-78
2022/10/05 13:10:58;;;;;;;1.48;0.80;;;24.00;94.30;;;;;;5075675;28;20028;-79
2022/10/05 13:13:35;;;;;;;1.23;0.95;;;24.10;93.70;;;;;;5005778;28;20034;-79
2022/10/05 13:16:26;;;;;;;1.20;0.95;;;24.30;93.60;;;;;;5009605;28;20022;-76
2022/10/05 13:19:13;;;;;;;2.80;1.00;;;24.50;92.90;;;;;;5020194;28;20049;-77
2022/10/05 13:22:14;;;;;;;2.05;0.88;;;25.10;92.40;;;;;;5005395;28;20029;-79
2022/10/05 13:25:18;;;;;;;3.60;0.95;;;25.40;90.10;;;;;;4999300;28;20624;-80
2022/10/05 13:27:47;;;;;;;1.50;0.82;;;25.20;90.00;;;;;;5017738;28;20025;-78
2022/10/05 13:30:16;;;;;;;4.60;1.40;;;25.20;90.30;;;;;;5000280;28;20967;-77
2022/10/05 13:32:46;;;;;;;2.35;0.82;;;25.70;89.40;;;;;;5016293;28;20033;-78
2022/10/05 13:35:47;;;;;;;5.88;0.90;;;26.00;88.40;;;;;;5018400;28;21756;-77
2022/10/05 13:38:55;;;;;;;3.55;1.42;;;26.00;87.00;;;;;;5015920;28;20057;-79
2022/10/05 13:41:47;;;;;;;2.38;0.80;;;25.80;87.30;;;;;;5016635;28;20029;-76
2022/10/05 13:44:21;;;;;;;1.48;0.90;;;25.60;86.00;;;;;;5029749;28;20388;-76
2022/10/05 13:46:56;;;;;;;3.70;1.10;;;25.90;85.90;;;;;;5072928;28;20025;-76
2022/10/05 13:49:33;;;;;;;3.17;1.00;;;26.30;84.50;;;;;;5055707;28;20055;-77
2022/10/05 13:52:30;;;;;;;2.35;0.80;;;26.50;82.30;;;;;;5072209;28;20048;-77
2022/10/05 13:55:04;;;;;;;1.40;0.70;;;26.50;81.50;;;;;;5090141;28;20032;-76
2022/10/05 13:57:50;;;;;;;1.30;0.70;;;26.90;80.10;;;;;;5057569;28;20156;-77
2022/10/05 14:00:24;;;;;;;3.38;0.98;;;27.20;79.40;;;;;;5074684;28;20460;-77
2022/10/05 14:02:55;;;;;;;2.67;0.90;;;26.80;78.20;;;;;;5065975;28;20127;-77
2022/10/05 14:05:29;;;;;;;2.88;1.30;;;27.40;78.30;;;;;;5089225;28;20365;-77
2022/10/05 14:08:08;;;;;;;3.90;1.15;;;28.10;75.90;;;;;;5054808;28;20028;-75